Time;durP1;ratioP1;P1;durP2;ratioP2;P2;SDS_P1;SDS_P2;PMS_P1;PMS_P2;Temp;Humidity;BMP_temperature;BMP_pressure;BME280_temperature;BME280_humidity;BME280_pressure;Samples;Min_cycle;Max_cycle;Signal;HPM_P1;HPM_P2
2022/05/05 00:01:29;;;;;;;13.55;8.60;;;;;;;9.57;100.00;100876.00;5047228;28;20024;-61
2022/05/05 00:03:55;;;;;;;10.13;8.45;;;;;;;9.87;100.00;100927.28;5048474;28;20866;-61
2022/05/05 00:06:21;;;;;;;11.30;8.48;;;;;;;9.74;100.00;100905.91;5043548;28;20878;-61
2022/05/05 00:08:46;;;;;;;12.75;9.05;;;;;;;9.86;100.00;100922.13;5029673;28;20032;-61
2022/05/05 00:16:39;;;;;;;12.53;9.20;;;;;;;9.75;100.00;100917.28;5047335;28;20081;-61
2022/05/05 00:19:05;;;;;;;10.35;8.85;;;;;;;9.62;100.00;100895.06;5048143;28;20897;-61
2022/05/05 00:21:30;;;;;;;13.30;10.10;;;;;;;9.67;100.00;100909.69;5046882;28;20777;-61
2022/05/05 00:23:56;;;;;;;11.77;8.43;;;;;;;9.55;100.00;100904.06;5046718;28;20027;-61
2022/05/05 00:26:21;;;;;;;11.27;9.10;;;;;;;9.55;100.00;100917.19;5046805;28;20029;-61
2022/05/05 00:28:47;;;;;;;21.00;10.05;;;;;;;9.36;100.00;100896.00;5048555;28;20097;-62
2022/05/05 00:31:12;;;;;;;14.07;8.88;;;;;;;9.28;100.00;100910.34;5046402;28;20035;-61
2022/05/05 00:33:37;;;;;;;14.02;9.68;;;;;;;9.11;100.00;100917.06;5047510;28;20143;-61
2022/05/05 00:36:03;;;;;;;18.95;9.25;;;;;;;8.62;100.00;100846.31;5048303;28;20989;-61
2022/05/05 00:38:29;;;;;;;14.57;9.43;;;;;;;8.92;100.00;100904.66;5046499;28;20032;-61
2022/05/05 00:40:54;;;;;;;11.20;9.00;;;;;;;8.81;100.00;100914.66;5047163;28;20801;-61
2022/05/05 00:43:19;;;;;;;11.07;7.90;;;;;;;8.51;100.00;100877.25;5046365;28;20035;-61
2022/05/05 00:45:45;;;;;;;10.10;8.40;;;;;;;8.36;100.00;100885.63;5047988;28;20089;-61
2022/05/05 00:48:12;;;;;;;11.63;8.20;;;;;;;8.39;100.00;100901.22;5047454;28;20899;-61
2022/05/05 00:50:38;;;;;;;12.32;7.90;;;;;;;8.27;100.00;100901.59;5046144;28;20028;-62
2022/05/05 00:53:04;;;;;;;12.70;8.40;;;;;;;8.31;100.00;100908.50;5047128;28;20070;-62
2022/05/05 00:55:33;;;;;;;14.40;9.18;;;;;;;8.22;100.00;100913.06;5047967;28;20056;-61
2022/05/05 00:57:59;;;;;;;13.38;9.55;;;;;;;8.12;100.00;100898.56;5046668;28;20031;-61
2022/05/05 01:00:25;;;;;;;18.02;11.48;;;;;;;8.11;100.00;100912.56;5046285;28;20938;-62
2022/05/05 01:02:51;;;;;;;13.63;9.35;;;;;;;8.01;100.00;100905.06;5027975;28;20024;-61
2022/05/05 01:05:17;;;;;;;12.32;10.70;;;;;;;7.96;100.00;100902.59;5029388;28;20048;-61
2022/05/05 01:07:42;;;;;;;13.75;10.15;;;;;;;7.90;100.00;100913.25;5045884;28;20945;-61
2022/05/05 01:10:08;;;;;;;12.82;10.38;;;;;;;7.86;100.00;100913.38;5027735;28;20090;-61
2022/05/05 01:12:33;;;;;;;14.00;10.45;;;;;;;7.62;100.00;100887.06;5047764;28;20024;-61
2022/05/05 01:15:00;;;;;;;18.17;10.10;;;;;;;7.74;100.00;100917.22;5047109;28;20159;-61
2022/05/05 01:17:29;;;;;;;17.65;9.82;;;;;;;7.69;100.00;100919.13;5045722;28;20020;-61
2022/05/05 01:19:54;;;;;;;14.90;11.55;;;;;;;7.48;100.00;100893.59;5047367;28;20996;-61
2022/05/05 01:22:20;;;;;;;16.08;11.00;;;;;;;7.60;100.00;100909.78;5045030;28;20028;-61
2022/05/05 01:30:13;;;;;;;14.13;11.68;;;;;;;7.52;100.00;100921.38;5046663;28;20063;-61
2022/05/05 01:32:39;;;;;;;21.88;16.45;;;;;;;7.42;100.00;100912.97;5046088;28;20031;-61
2022/05/05 01:35:05;;;;;;;27.80;22.13;;;;;;;7.43;100.00;100917.28;5028123;28;20038;-61
2022/05/05 01:37:30;;;;;;;29.10;22.10;;;;;;;7.47;100.00;100920.69;5045935;28;20038;-61
2022/05/05 01:39:56;;;;;;;35.45;29.73;;;;;;;7.26;100.00;100889.91;5046448;28;20139;-61
2022/05/05 01:42:22;;;;;;;37.03;30.45;;;;;;;7.41;100.00;100915.59;5045657;28;20062;-61
2022/05/05 01:44:47;;;;;;;36.70;31.83;;;;;;;7.44;100.00;100926.81;5027556;28;20165;-61
2022/05/05 01:47:13;;;;;;;55.03;40.88;;;;;;;7.45;100.00;100922.47;5045278;28;20024;-61
2022/05/05 01:49:38;;;;;;;55.58;44.40;;;;;;;7.42;100.00;100919.94;5045437;28;20901;-61
2022/05/05 01:52:12;;;;;;;50.92;45.53;;;;;;;7.35;100.00;100919.25;5045888;28;20023;-61
2022/05/05 01:54:38;;;;;;;;;;;;;;;7.39;100.00;100927.88;5046037;28;20047;-61
2022/05/05 01:57:04;;;;;;;52.00;43.65;;;;;;;7.30;100.00;100915.06;5047010;28;19982;-61
2022/05/05 01:59:30;;;;;;;53.58;45.03;;;;;;;7.24;100.00;100920.44;5048969;28;20841;-61
2022/05/05 02:01:56;;;;;;;55.17;41.17;;;;;;;7.18;100.00;100916.25;5047632;28;20027;-61
2022/05/05 02:04:21;;;;;;;53.97;43.78;;;;;;;7.14;100.00;100918.09;5047137;28;20028;-61
2022/05/05 02:06:46;;;;;;;47.42;42.10;;;;;;;7.11;100.00;100915.59;5046646;28;20911;-62
2022/05/05 02:09:12;;;;;;;45.70;39.72;;;;;;;7.15;100.00;100922.44;5045343;28;20030;-61
2022/05/05 02:11:41;;;;;;;38.53;34.28;;;;;;;7.24;100.00;100930.91;5027243;28;21010;-61
2022/05/05 02:14:07;;;;;;;47.60;38.53;;;;;;;7.08;100.00;100914.81;5047142;28;20148;-61
2022/05/05 02:16:33;;;;;;;47.90;37.95;;;;;;;7.16;100.00;100926.75;5033608;28;20907;-61
2022/05/05 02:18:58;;;;;;;49.75;38.20;;;;;;;7.21;100.00;100931.84;5028812;28;20043;-61
2022/05/05 02:21:23;;;;;;;56.33;36.88;;;;;;;7.22;100.00;100927.50;5027289;28;20838;-61
2022/05/05 02:23:49;;;;;;;50.38;35.97;;;;;;;7.16;100.00;100921.53;5026326;28;20067;-61
2022/05/05 02:26:14;;;;;;;52.55;37.83;;;;;;;7.17;100.00;100931.09;5025830;28;20086;-61
2022/05/05 02:28:39;;;;;;;43.95;33.63;;;;;;;7.15;100.00;100925.06;5035570;28;20020;-61
2022/05/05 02:31:05;;;;;;;40.85;31.80;;;;;;;7.16;100.00;100933.75;5046597;28;20877;-61
2022/05/05 02:33:30;;;;;;;40.08;31.42;;;;;;;7.07;100.00;100929.63;5045506;28;20039;-61
2022/05/05 02:38:42;;;;;;;38.53;28.40;;;;;;;6.94;100.00;100938.69;5049427;28;20097;-61
2022/05/05 02:41:07;;;;;;;35.95;28.27;;;;;;;6.87;100.00;100931.06;5048389;28;20300;-61
2022/05/05 02:43:33;;;;;;;30.58;24.00;;;;;;;6.84;100.00;100921.53;5050133;28;20040;-61
2022/05/05 02:45:58;;;;;;;30.52;23.27;;;;;;;6.66;100.00;100896.78;5049320;28;20917;-61
2022/05/05 02:48:24;;;;;;;31.58;25.75;;;;;;;6.83;100.00;100934.63;5048820;28;20127;-61
2022/05/05 02:50:49;;;;;;;33.15;27.00;;;;;;;6.73;100.00;100915.75;5048687;28;20027;-61
2022/05/05 02:55:59;;;;;;;38.75;25.33;;;;;;;6.72;100.00;100923.63;5048591;28;20155;-61
2022/05/05 02:58:25;;;;;;;31.25;23.70;;;;;;;6.68;100.00;100925.47;5049442;28;20849;-61
2022/05/05 03:00:50;;;;;;;28.90;23.05;;;;;;;6.62;100.00;100920.41;5049238;28;20231;-61
2022/05/05 03:03:16;;;;;;;29.75;22.35;;;;;;;6.30;100.00;100881.19;5049984;28;20024;-61
2022/05/05 03:05:41;;;;;;;27.10;22.83;;;;;;;6.58;100.00;100937.03;5049092;28;20080;-61
2022/05/05 03:08:07;;;;;;;30.17;22.58;;;;;;;6.50;100.00;100921.56;5048335;28;20049;-61
2022/05/05 03:10:32;;;;;;;23.02;20.08;;;;;;;6.54;100.00;100935.41;5049182;28;20028;-61
2022/05/05 03:12:58;;;;;;;25.55;21.13;;;;;;;6.45;100.00;100922.59;5049532;28;20043;-61
2022/05/05 03:15:23;;;;;;;23.00;19.73;;;;;;;6.52;100.00;100929.38;5048463;28;20028;-61
2022/05/05 03:17:49;;;;;;;23.77;19.05;;;;;;;6.55;100.00;100929.28;5049344;28;20028;-61
2022/05/05 03:20:15;;;;;;;23.83;20.08;;;;;;;6.58;100.00;100937.03;5048361;28;20057;-61
2022/05/05 03:22:41;;;;;;;29.13;21.67;;;;;;;6.53;100.00;100926.69;5049562;28;20205;-61
2022/05/05 03:25:06;;;;;;;24.33;19.42;;;;;;;6.56;100.00;100920.53;5051323;28;20130;-61
2022/05/05 03:27:33;;;;;;;24.00;19.05;;;;;;;6.57;100.00;100917.03;5048085;28;20145;-61
2022/05/05 03:29:58;;;;;;;19.90;17.75;;;;;;;6.61;100.00;100903.03;5029607;28;20038;-61
2022/05/05 03:32:23;;;;;;;26.38;19.40;;;;;;;6.77;100.00;100925.22;5048499;28;20024;-61
2022/05/05 03:34:49;;;;;;;24.25;19.92;;;;;;;6.76;100.00;100917.44;5048044;28;20896;-61
2022/05/05 03:37:14;;;;;;;23.98;19.00;;;;;;;6.85;100.00;100919.81;5048114;28;20060;-60
2022/05/05 03:39:40;;;;;;;22.33;19.20;;;;;;;6.98;100.00;100932.50;5031370;28;20350;-61
2022/05/05 03:42:06;;;;;;;22.05;17.88;;;;;;;7.03;100.00;100941.03;5049255;28;20931;-60
2022/05/05 03:44:31;;;;;;;23.95;17.55;;;;;;;6.62;100.00;100873.41;5029881;28;20880;-60
2022/05/05 03:46:56;;;;;;;22.20;18.52;;;;;;;7.04;100.00;100934.94;5046473;28;20024;-60
2022/05/05 03:49:22;;;;;;;23.77;18.20;;;;;;;6.99;100.00;100931.59;5046951;28;20048;-60
2022/05/05 03:51:47;;;;;;;24.67;18.77;;;;;;;7.08;100.00;100943.53;5047417;28;20880;-60
2022/05/05 03:54:13;;;;;;;19.88;16.88;;;;;;;7.14;100.00;100949.47;5047325;28;20867;-60
2022/05/05 03:56:38;;;;;;;23.63;18.60;;;;;;;7.10;100.00;100933.91;5049365;28;20028;-60
2022/05/05 03:59:04;;;;;;;23.35;18.20;;;;;;;7.26;100.00;100950.03;5048568;28;20088;-60
2022/05/05 04:01:29;;;;;;;22.40;18.13;;;;;;;7.31;100.00;100959.44;5030964;28;20035;-60
2022/05/05 04:03:54;;;;;;;24.90;19.45;;;;;;;7.29;100.00;100944.72;5046932;28;20084;-61
2022/05/05 04:06:20;;;;;;;21.88;19.45;;;;;;;7.30;100.00;100949.06;5049316;28;20761;-61
2022/05/05 04:08:45;;;;;;;22.08;18.95;;;;;;;7.33;100.00;100956.81;5047135;28;20165;-61
2022/05/05 04:11:11;;;;;;;23.90;18.92;;;;;;;7.44;100.00;100954.72;5047772;28;20031;-61
2022/05/05 04:13:36;;;;;;;25.33;18.75;;;;;;;7.13;100.00;100900.69;5048444;28;20927;-62
2022/05/05 04:16:02;;;;;;;23.48;18.05;;;;;;;7.47;100.00;100949.44;5046297;28;20502;-61
2022/05/05 04:18:27;;;;;;;20.48;15.57;;;;;;;7.40;100.00;100934.81;5046253;28;20056;-61
2022/05/05 04:20:53;;;;;;;28.63;16.75;;;;;;;7.37;100.00;100929.69;5030188;28;20028;-61
2022/05/05 04:23:19;;;;;;;19.50;16.88;;;;;;;7.62;100.00;100967.28;5046750;28;20020;-61
2022/05/05 04:25:44;;;;;;;21.75;16.42;;;;;;;7.67;100.00;100962.78;5046709;28;20056;-61
2022/05/05 04:28:12;;;;;;;27.60;18.27;;;;;;;7.71;100.00;100975.72;5047157;28;20906;-61
2022/05/05 04:30:40;;;;;;;20.52;15.63;;;;;;;7.77;100.00;100974.69;5049135;28;20035;-61
2022/05/05 04:33:07;;;;;;;25.70;17.60;;;;;;;7.72;100.00;100950.41;5051546;28;20140;-61
2022/05/05 04:35:36;;;;;;;21.83;16.20;;;;;;;7.89;100.00;100965.63;5051786;28;20117;-61
2022/05/05 04:38:02;;;;;;;23.00;15.45;;;;;;;8.00;100.00;100969.63;5051076;28;20024;-61
2022/05/05 04:40:27;;;;;;;21.90;17.45;;;;;;;7.98;100.00;100950.50;5050981;28;20826;-61
2022/05/05 04:42:53;;;;;;;23.00;16.13;;;;;;;8.08;100.00;100958.91;5054837;28;20124;-61
2022/05/05 04:45:18;;;;;;;19.23;14.77;;;;;;;7.86;100.00;100911.63;5056455;28;20065;-61
2022/05/05 04:47:43;;;;;;;20.45;15.52;;;;;;;8.20;100.00;100969.00;5057576;28;20890;-61
2022/05/05 04:50:09;;;;;;;22.58;14.43;;;;;;;8.06;100.00;100924.94;5039677;28;20038;-61
2022/05/05 04:52:35;;;;;;;20.45;15.48;;;;;;;8.35;100.00;100975.56;5058584;28;20024;-61
2022/05/05 04:55:00;;;;;;;19.08;15.35;;;;;;;8.05;100.00;100928.47;5058780;28;20063;-62
2022/05/05 04:57:26;;;;;;;19.05;15.25;;;;;;;8.43;100.00;100981.41;5061466;28;20825;-61
2022/05/05 04:59:51;;;;;;;17.52;14.65;;;;;;;8.50;100.00;100982.91;5042008;28;20860;-61
2022/05/05 05:02:17;;;;;;;16.77;14.77;;;;;;;8.51;100.00;100982.03;5058077;28;20926;-61
2022/05/05 05:04:42;;;;;;;16.77;13.27;;;;;;;8.62;100.00;100985.13;5056043;28;20024;-61
2022/05/05 05:07:07;;;;;;;18.00;14.77;;;;;;;8.71;100.00;100979.59;5060932;28;20039;-61
2022/05/05 05:09:34;;;;;;;14.88;13.02;;;;;;;8.78;100.00;100991.59;5053816;28;20028;-61
2022/05/05 05:12:00;;;;;;;17.58;13.52;;;;;;;8.65;100.00;100948.38;5050720;28;20139;-61
2022/05/05 05:14:26;;;;;;;18.83;12.68;;;;;;;8.97;100.00;100987.44;5045324;28;20024;-61
2022/05/05 05:16:51;;;;;;;18.38;13.27;;;;;;;8.87;100.00;100962.47;5039551;28;20032;-62
2022/05/05 05:19:17;;;;;;;14.98;12.55;;;;;;;8.90;100.00;100951.88;5030741;28;20807;-61
2022/05/05 05:21:42;;;;;;;22.85;13.70;;;;;;;9.17;100.00;100984.13;5014021;28;20031;-61
2022/05/05 05:24:08;;;;;;;17.05;13.57;;;;;;;9.11;100.00;100971.25;5022008;28;20935;-61
2022/05/05 05:26:33;;;;;;;15.30;12.45;;;;;;;9.31;100.00;100992.38;5060950;28;20139;-61
2022/05/05 05:28:59;;;;;;;14.65;11.70;;;;;;;9.34;100.00;100992.25;5061252;28;20067;-60
2022/05/05 05:31:24;;;;;;;18.88;12.95;;;;;;;9.46;100.00;100994.44;5060295;28;20077;-62
2022/05/05 05:33:50;;;;;;;19.90;11.93;;;;;;;9.57;100.00;101008.03;5060039;28;20906;-61
2022/05/05 05:36:15;;;;;;;18.00;13.57;;;;;;;9.67;100.00;101013.78;5062789;28;20035;-61
2022/05/05 05:38:41;;;;;;;14.57;11.63;;;;;;;9.77;100.00;101027.44;5062146;28;20069;-61
2022/05/05 05:41:06;;;;;;;16.20;10.75;;;;;;;9.79;100.00;101017.75;5061114;28;20152;-61
2022/05/05 05:43:31;;;;;;;18.10;12.45;;;;;;;9.87;100.00;101019.16;5052461;28;20938;-61
2022/05/05 05:45:57;;;;;;;15.40;12.27;;;;;;;9.99;100.00;101028.34;5042766;28;20066;-61
2022/05/05 05:48:22;;;;;;;14.52;12.73;;;;;;;9.99;100.00;101016.09;5055231;28;20047;-61
2022/05/05 05:50:48;;;;;;;15.35;12.55;;;;;;;10.08;100.00;101010.47;5063112;28;20124;-61
2022/05/05 05:53:13;;;;;;;15.60;13.52;;;;;;;10.20;100.00;101020.56;5063796;28;20843;-61
2022/05/05 05:55:38;;;;;;;18.77;13.38;;;;;;;10.33;100.00;101025.31;5050062;28;20034;-61
2022/05/05 05:58:04;;;;;;;18.08;12.98;;;;;;;10.15;100.00;100995.38;5054455;28;20788;-61
2022/05/05 06:00:32;;;;;;;22.00;14.20;;;;;;;10.51;100.00;101040.38;5056855;28;20589;-61
2022/05/05 06:05:42;;;;;;;19.52;12.82;;;;;;;10.59;100.00;101033.88;5052158;28;20213;-61
2022/05/05 06:08:08;;;;;;;18.55;13.05;;;;;;;10.67;100.00;101036.22;5030301;28;20024;-61
2022/05/05 06:10:33;;;;;;;22.77;12.18;;;;;;;10.75;100.00;101032.34;5033647;28;20079;-61
2022/05/05 06:12:58;;;;;;;17.65;13.60;;;;;;;10.60;100.00;101001.44;5050531;28;20020;-61
2022/05/05 06:15:24;;;;;;;23.05;12.55;;;;;;;10.86;100.00;101031.06;5050165;28;20020;-61
2022/05/05 06:17:50;;;;;;;15.25;13.23;;;;;;;10.97;100.00;101050.72;5050574;28;20032;-61
2022/05/05 06:20:16;;;;;;;17.75;13.75;;;;;;;11.02;100.00;101054.00;5020558;28;20052;-61
2022/05/05 06:22:41;;;;;;;19.15;13.20;;;;;;;10.93;100.00;101028.09;5042439;28;20105;-61
2022/05/05 06:25:07;;;;;;;17.08;12.07;;;;;;;11.07;100.00;101046.81;5049525;28;20919;-61
2022/05/05 06:27:33;;;;;;;13.10;11.70;;;;;;;11.17;100.00;101048.13;5049609;28;20026;-61
2022/05/05 06:30:02;;;;;;;15.48;11.90;;;;;;;11.27;100.00;101054.72;5048266;28;20028;-61
2022/05/05 06:32:27;;;;;;;17.02;13.30;;;;;;;11.26;100.00;101049.50;5048596;28;20135;-65
2022/05/05 06:34:54;;;;;;;17.38;12.57;;;;;;;11.42;100.00;101068.13;5045541;28;20032;-62
2022/05/05 06:37:20;;;;;;;21.15;12.77;;;;;;;11.47;100.00;101050.34;5041622;28;20030;-62
2022/05/05 06:39:46;;;;;;;16.55;12.13;;;;;;;11.51;100.00;101062.47;5043546;28;20031;-63
2022/05/05 06:42:11;;;;;;;20.00;12.45;;;;;;;11.54;100.00;101067.59;5045021;28;20127;-61
2022/05/05 06:44:36;;;;;;;14.85;11.68;;;;;;;11.59;100.00;101065.63;5048353;28;20032;-61
2022/05/05 06:47:03;;;;;;;14.18;11.73;;;;;;;11.47;100.00;101039.84;5047800;28;20024;-61
2022/05/05 06:49:29;;;;;;;16.60;11.63;;;;;;;11.65;100.00;101065.38;5048912;28;20093;-61
2022/05/05 06:51:54;;;;;;;16.42;12.65;;;;;;;11.69;100.00;101056.41;5047254;28;20032;-61
2022/05/05 06:54:20;;;;;;;19.85;13.60;;;;;;;11.81;100.00;101069.06;5049362;28;20031;-61
2022/05/05 06:56:45;;;;;;;17.10;12.30;;;;;;;11.89;100.00;101066.09;5049291;28;20028;-61
2022/05/05 06:59:10;;;;;;;19.10;13.95;;;;;;;12.01;100.00;101071.66;5029931;28;20821;-61
2022/05/05 07:01:54;;;;;;;16.35;13.65;;;;;;;12.16;100.00;101068.34;5047729;28;20031;-61
2022/05/05 07:07:06;;;;;;;24.65;13.55;;;;;;;12.38;100.00;101055.00;5047979;28;20883;-61
2022/05/05 07:12:15;;;;;;;21.15;14.15;;;;;;;12.68;100.00;101084.31;5048989;28;20097;-61
2022/05/05 07:14:43;;;;;;;24.63;14.93;;;;;;;12.58;100.00;101069.88;5047996;28;20132;-61
2022/05/05 07:17:09;;;;;;;25.05;14.50;;;;;;;12.70;100.00;101085.13;5031199;28;20032;-61
2022/05/05 07:19:34;;;;;;;19.17;12.98;;;;;;;12.78;100.00;101077.66;5047791;28;20973;-61
2022/05/05 07:21:59;;;;;;;16.42;12.13;;;;;;;12.87;100.00;101082.53;5046148;28;20036;-61
2022/05/05 07:24:25;;;;;;;25.75;12.68;;;;;;;13.00;100.00;101088.91;5047173;28;20039;-61
2022/05/05 07:26:50;;;;;;;23.70;14.40;;;;;;;13.17;100.00;101096.88;5047241;28;20629;-61
2022/05/05 07:29:16;;;;;;;25.13;13.50;;;;;;;13.23;100.00;101103.63;5048477;28;20028;-61
2022/05/05 07:31:41;;;;;;;36.00;14.23;;;;;;;13.31;100.00;101110.22;5047488;28;20016;-62
2022/05/05 07:34:07;;;;;;;27.88;14.50;;;;;;;13.11;100.00;101076.03;5047588;28;20035;-62
2022/05/05 07:36:33;;;;;;;37.17;14.52;;;;;;;13.07;100.00;101058.66;5047580;28;20024;-61
2022/05/05 07:38:58;;;;;;;29.33;15.00;;;;;;;13.42;100.00;101095.66;5049013;28;20883;-62
2022/05/05 07:41:23;;;;;;;36.95;15.40;;;;;;;13.66;100.00;101112.84;5048633;28;20032;-62
2022/05/05 07:43:52;;;;;;;41.55;16.50;;;;;;;13.48;100.00;101050.44;5049102;28;20028;-62
2022/05/05 07:46:18;;;;;;;24.95;13.98;;;;;;;13.82;100.00;101106.69;5047360;28;20036;-62
2022/05/05 07:48:44;;;;;;;20.65;12.63;;;;;;;13.92;100.00;101119.47;5029404;28;20489;-62
2022/05/05 07:51:10;;;;;;;28.40;13.90;;;;;;;13.86;100.00;101091.53;5048469;28;20043;-62
2022/05/05 07:53:35;;;;;;;23.75;13.48;;;;;;;14.14;100.00;101102.38;5047430;28;20135;-62
2022/05/05 07:56:01;;;;;;;21.88;14.75;;;;;;;14.32;100.00;101116.41;5047983;28;20950;-61
2022/05/05 07:58:26;;;;;;;21.85;16.50;;;;;;;14.42;100.00;101120.28;5048372;28;20031;-61
2022/05/05 08:00:52;;;;;;;27.95;15.95;;;;;;;14.29;100.00;101096.28;5047555;28;20020;-62
2022/05/05 08:03:18;;;;;;;21.52;16.25;;;;;;;14.54;100.00;101118.75;5046918;28;20054;-62
2022/05/05 08:05:44;;;;;;;24.58;16.45;;;;;;;14.68;100.00;101124.13;5047671;28;20150;-62
2022/05/05 08:08:09;;;;;;;20.33;15.40;;;;;;;14.80;100.00;101126.09;5046602;28;20028;-61
2022/05/05 08:10:34;;;;;;;27.95;18.95;;;;;;;14.92;100.00;101128.06;5046858;28;20904;-62
2022/05/05 08:13:00;;;;;;;25.63;17.65;;;;;;;14.96;100.00;101134.88;5048549;28;20035;-61
2022/05/05 08:15:25;;;;;;;25.90;18.45;;;;;;;15.03;100.00;101141.53;5044835;28;20032;-61
2022/05/05 08:17:51;;;;;;;23.60;17.70;;;;;;;15.08;100.00;101134.19;5041061;28;20032;-61
2022/05/05 08:20:16;;;;;;;27.35;19.75;;;;;;;15.16;100.00;101115.22;5026237;28;20024;-61
2022/05/05 08:22:41;;;;;;;36.95;22.15;;;;;;;15.34;100.00;101136.19;5026095;28;20095;-62
2022/05/05 08:30:36;;;;;;;36.35;21.42;;;;;;;15.25;100.00;101136.72;5027203;28;20818;-62
2022/05/05 08:33:02;;;;;;;30.83;22.65;;;;;;;15.28;100.00;101120.66;5025602;28;20024;-61
2022/05/05 08:35:27;;;;;;;26.58;22.27;;;;;;;15.53;100.00;101136.00;5025961;28;20032;-62
2022/05/05 08:37:54;;;;;;;34.15;24.25;;;;;;;15.58;100.00;101131.28;5008022;28;20083;-61
2022/05/05 08:40:22;;;;;;;35.58;24.65;;;;;;;15.53;100.00;101120.09;5026003;28;20043;-61
2022/05/05 08:42:48;;;;;;;40.33;27.23;;;;;;;15.70;100.00;101133.22;5027974;28;20051;-61
2022/05/05 08:45:13;;;;;;;47.50;26.48;;;;;;;15.76;100.00;101134.63;5032541;28;20043;-61
2022/05/05 08:47:39;;;;;;;33.45;24.98;;;;;;;15.81;100.00;101146.69;5046996;28;20089;-61
2022/05/05 08:50:08;;;;;;;32.90;25.23;;;;;;;15.80;100.00;101136.16;5031880;28;20034;-61
2022/05/05 08:52:35;;;;;;;27.35;23.65;;;;;;;15.82;100.00;101151.00;5048721;28;20028;-61
2022/05/05 08:55:02;;;;;;;30.98;24.77;;;;;;;15.92;100.00;101143.34;5062349;28;20805;-61
2022/05/05 08:57:28;;;;;;;32.97;25.13;;;;;;;16.07;100.00;101147.75;5047215;28;20028;-61
2022/05/05 08:59:56;;;;;;;38.55;26.40;;;;;;;16.03;100.00;101135.63;5028179;28;20034;-61
2022/05/05 09:02:22;;;;;;;30.83;23.58;;;;;;;16.09;100.00;101144.97;5028800;28;20054;-61
2022/05/05 09:04:47;;;;;;;35.72;25.08;;;;;;;16.08;100.00;101122.94;5031606;28;20032;-61
2022/05/05 09:07:13;;;;;;;33.42;23.60;;;;;;;16.36;100.00;101148.59;5046469;28;20035;-61
2022/05/05 09:09:38;;;;;;;36.42;26.90;;;;;;;16.52;100.00;101152.03;5045815;28;20036;-61
2022/05/05 09:12:17;;;;;;;33.25;23.95;;;;;;;16.70;100.00;101157.97;5045663;28;20493;-62
2022/05/05 09:14:44;;;;;;;31.63;25.60;;;;;;;16.95;100.00;101155.47;5047230;28;20028;-62
2022/05/05 09:17:13;;;;;;;35.20;24.20;;;;;;;17.17;100.00;101153.13;5047122;28;20036;-62
2022/05/05 09:19:40;;;;;;;32.10;23.23;;;;;;;16.87;100.00;101091.38;5045443;28;20040;-62
2022/05/05 09:22:07;;;;;;;29.27;23.67;;;;;;;17.31;100.00;101139.78;5046947;28;20020;-62
2022/05/05 09:24:35;;;;;;;32.85;24.75;;;;;;;17.28;100.00;101128.50;5046284;28;20036;-61
2022/05/05 09:27:20;;;;;;;30.02;22.83;;;;;;;17.42;100.00;101151.50;5047063;28;20130;-62
2022/05/05 09:30:02;;;;;;;29.58;21.55;;;;;;;17.38;100.00;101154.38;5046587;28;20127;-61
2022/05/05 09:32:40;;;;;;;34.17;23.15;;;;;;;17.36;100.00;101148.31;5028537;28;20135;-62
2022/05/05 09:35:14;;;;;;;30.08;23.58;;;;;;;17.20;100.00;101147.59;5047096;28;20036;-61
2022/05/05 09:37:44;;;;;;;28.90;22.50;;;;;;;17.10;100.00;101162.44;5045999;28;20043;-62
2022/05/05 09:40:12;;;;;;;33.28;23.90;;;;;;;17.01;100.00;101151.56;5047491;28;20042;-62
2022/05/05 09:42:49;;;;;;;26.48;22.73;;;;;;;17.20;100.00;101155.56;5029868;28;20035;-62
2022/05/05 09:45:18;;;;;;;32.15;20.60;;;;;;;17.20;100.00;101152.91;5048130;28;20148;-62
2022/05/05 09:47:52;;;;;;;34.63;20.67;;;;;;;17.09;100.00;101107.63;5048031;28;20143;-62
2022/05/05 09:50:19;;;;;;;;;;;;;;;17.66;99.80;101157.88;5046218;28;20028;-62
2022/05/05 09:58:16;;;;;;;31.27;20.63;;;;;;;18.38;95.79;101155.44;5045134;28;20911;-61
2022/05/05 10:00:55;;;;;;;26.52;22.08;;;;;;;18.45;98.85;101144.41;5046005;28;20882;-61
2022/05/05 10:06:41;;;;;;;21.98;18.38;;;;;;;18.72;98.69;101137.13;5030984;28;20046;-61
2022/05/05 10:09:08;;;;;;;31.88;21.52;;;;;;;19.13;95.62;101153.59;5027209;28;20855;-61
2022/05/05 10:11:35;;;;;;;28.42;22.55;;;;;;;19.31;95.57;101136.25;5045124;28;20031;-61
2022/05/05 10:14:02;;;;;;;29.23;23.52;;;;;;;19.28;87.05;101156.94;5045248;28;20030;-62
2022/05/05 10:16:30;;;;;;;31.40;24.15;;;;;;;19.04;88.30;101154.28;5045015;28;20394;-62
2022/05/05 10:18:56;;;;;;;27.58;24.00;;;;;;;18.88;89.90;101148.38;5044700;28;20066;-62
2022/05/05 10:21:39;;;;;;;27.13;22.02;;;;;;;19.07;94.18;101164.69;5045138;28;20186;-62
2022/05/05 10:24:31;;;;;;;36.53;24.63;;;;;;;19.24;88.29;101169.66;5044961;28;20089;-62
2022/05/05 10:26:58;;;;;;;33.78;24.15;;;;;;;19.17;85.72;101167.53;5034415;28;20848;-62
2022/05/05 10:29:35;;;;;;;31.58;24.98;;;;;;;19.08;84.36;101166.41;5027087;28;20641;-62
2022/05/05 10:32:30;;;;;;;31.95;23.77;;;;;;;19.13;86.59;101164.25;5027096;28;20139;-62
2022/05/05 10:35:27;;;;;;;34.20;23.92;;;;;;;19.24;85.83;101161.66;5044572;28;20866;-62
2022/05/05 10:37:53;;;;;;;28.52;22.35;;;;;;;19.22;87.42;101152.94;5043676;28;20047;-62
2022/05/05 10:40:18;;;;;;;31.73;22.98;;;;;;;19.23;88.59;101157.28;5045570;28;20024;-62
2022/05/05 10:42:45;;;;;;;25.80;23.00;;;;;;;19.46;87.04;101165.44;5044132;28;20028;-62
2022/05/05 10:45:14;;;;;;;28.15;23.52;;;;;;;19.69;86.53;101167.22;5045147;28;20066;-62
2022/05/05 10:47:52;;;;;;;28.83;24.15;;;;;;;19.93;83.16;101173.34;5044385;28;20024;-62
2022/05/05 10:50:54;;;;;;;30.13;20.70;;;;;;;20.07;82.57;101169.63;5039678;28;20059;-62
2022/05/05 10:53:39;;;;;;;28.30;22.75;;;;;;;19.98;80.43;101164.97;5027137;28;20130;-62
2022/05/05 10:56:26;;;;;;;27.00;23.50;;;;;;;19.89;82.75;101164.72;5010572;28;20055;-62
2022/05/05 10:59:08;;;;;;;27.42;20.88;;;;;;;20.14;82.56;101158.31;5028564;28;20044;-62
2022/05/05 11:01:46;;;;;;;28.38;22.02;;;;;;;20.49;81.36;101162.75;5043949;28;20029;-62
2022/05/05 11:04:35;;;;;;;34.28;20.73;;;;;;;20.76;79.58;101165.88;5027827;28;20842;-62
2022/05/05 11:07:19;;;;;;;29.85;23.60;;;;;;;20.85;79.64;101163.31;5029733;28;20037;-63
2022/05/05 11:09:44;;;;;;;30.35;23.17;;;;;;;20.48;79.67;101159.22;5028076;28;20035;-62
2022/05/05 11:12:16;;;;;;;28.92;24.00;;;;;;;20.58;79.65;101160.19;5029619;28;20021;-62
2022/05/05 11:23:45;;;;;;;29.50;19.10;;;;;;;20.78;74.96;101142.59;5028725;28;20040;-62
2022/05/05 11:26:14;;;;;;;25.95;20.10;;;;;;;20.74;74.25;101151.81;5029889;28;20036;-61
2022/05/05 11:28:40;;;;;;;25.55;21.10;;;;;;;20.60;73.98;101138.72;5028762;28;20029;-62
2022/05/05 11:31:15;;;;;;;29.17;21.83;;;;;;;20.63;73.17;101138.47;5028679;28;20035;-62
2022/05/05 11:33:41;;;;;;;29.20;21.90;;;;;;;20.39;72.83;101146.63;5011729;28;20170;-62
2022/05/05 11:36:06;;;;;;;27.00;22.50;;;;;;;20.07;73.26;101146.44;5030393;28;20067;-62
2022/05/05 11:38:32;;;;;;;25.73;20.10;;;;;;;21.37;74.51;101159.09;5011298;28;20035;-62
2022/05/05 11:41:07;;;;;;;31.25;20.77;;;;;;;24.36;68.39;101151.84;5044246;28;20067;-63
2022/05/05 11:46:26;;;;;;;23.40;17.43;;;;;;;27.06;57.92;101138.47;5010019;28;20902;-62
2022/05/05 11:48:54;;;;;;;25.15;19.65;;;;;;;25.22;59.00;101158.59;5028416;28;20273;-62
2022/05/05 11:51:30;;;;;;;23.17;19.92;;;;;;;22.26;64.38;101151.44;5049183;28;20032;-62
2022/05/05 11:54:02;;;;;;;29.15;20.90;;;;;;;20.98;68.42;101160.53;5049683;28;20154;-62
2022/05/05 11:56:28;;;;;;;23.92;20.17;;;;;;;19.69;70.87;101156.53;5048329;28;20142;-61
2022/05/05 12:01:41;;;;;;;22.27;19.90;;;;;;;18.39;77.40;101151.84;5033145;28;20864;-62